sensor_id;sensor_type;location;lat;lon;timestamp;temperature;humidity
35700;DHT22;21818;51.078;12.108;2023-01-19T00:01:11;5.50;71.80
35700;DHT22;21818;51.078;12.108;2023-01-19T00:03:36;5.50;71.60
35700;DHT22;21818;51.078;12.108;2023-01-19T00:06:09;5.50;71.80
35700;DHT22;21818;51.078;12.108;2023-01-19T00:08:35;5.50;71.80
35700;DHT22;21818;51.078;12.108;2023-01-19T00:11:01;5.50;71.70
35700;DHT22;21818;51.078;12.108;2023-01-19T00:13:27;5.50;71.60
35700;DHT22;21818;51.078;12.108;2023-01-19T00:15:53;5.50;71.60
35700;DHT22;21818;51.078;12.108;2023-01-19T00:18:18;5.50;71.80
35700;DHT22;21818;51.078;12.108;2023-01-19T00:20:45;5.50;71.80
35700;DHT22;21818;51.078;12.108;2023-01-19T00:23:10;5.50;71.80
35700;DHT22;21818;51.078;12.108;2023-01-19T00:25:37;5.50;71.80
35700;DHT22;21818;51.078;12.108;2023-01-19T00:28:10;5.50;71.80
35700;DHT22;21818;51.078;12.108;2023-01-19T00:30:37;5.50;71.70
35700;DHT22;21818;51.078;12.108;2023-01-19T00:33:03;5.50;71.70
35700;DHT22;21818;51.078;12.108;2023-01-19T00:35:28;5.60;71.70
35700;DHT22;21818;51.078;12.108;2023-01-19T00:37:55;5.60;71.70
35700;DHT22;21818;51.078;12.108;2023-01-19T00:40:21;5.60;71.40
35700;DHT22;21818;51.078;12.108;2023-01-19T00:42:46;5.60;71.50
35700;DHT22;21818;51.078;12.108;2023-01-19T00:45:15;5.50;71.30
35700;DHT22;21818;51.078;12.108;2023-01-19T00:47:42;5.50;71.40
35700;DHT22;21818;51.078;12.108;2023-01-19T00:50:10;5.50;71.50
35700;DHT22;21818;51.078;12.108;2023-01-19T00:52:36;5.50;71.40
35700;DHT22;21818;51.078;12.108;2023-01-19T00:55:03;5.40;71.40
35700;DHT22;21818;51.078;12.108;2023-01-19T00:57:28;5.40;71.30
35700;DHT22;21818;51.078;12.108;2023-01-19T00:59:54;5.40;71.40
35700;DHT22;21818;51.078;12.108;2023-01-19T01:02:19;5.40;71.40
35700;DHT22;21818;51.078;12.108;2023-01-19T01:04:45;5.40;71.30
35700;DHT22;21818;51.078;12.108;2023-01-19T01:07:10;5.40;71.30
35700;DHT22;21818;51.078;12.108;2023-01-19T01:09:36;5.40;71.30
35700;DHT22;21818;51.078;12.108;2023-01-19T01:12:02;5.30;71.40
35700;DHT22;21818;51.078;12.108;2023-01-19T01:14:27;5.30;71.20
35700;DHT22;21818;51.078;12.108;2023-01-19T01:16:53;5.30;71.20
35700;DHT22;21818;51.078;12.108;2023-01-19T01:19:19;5.30;71.20
35700;DHT22;21818;51.078;12.108;2023-01-19T01:21:45;5.30;71.00
35700;DHT22;21818;51.078;12.108;2023-01-19T01:24:11;5.10;70.70
35700;DHT22;21818;51.078;12.108;2023-01-19T01:26:37;5.10;70.90
35700;DHT22;21818;51.078;12.108;2023-01-19T01:29:04;5.00;70.70
35700;DHT22;21818;51.078;12.108;2023-01-19T01:31:30;5.00;70.90
35700;DHT22;21818;51.078;12.108;2023-01-19T01:33:56;5.00;70.60
35700;DHT22;21818;51.078;12.108;2023-01-19T01:36:21;5.00;70.40
35700;DHT22;21818;51.078;12.108;2023-01-19T01:38:47;5.00;70.60
35700;DHT22;21818;51.078;12.108;2023-01-19T01:41:12;5.00;70.50
35700;DHT22;21818;51.078;12.108;2023-01-19T01:43:46;5.00;70.70
35700;DHT22;21818;51.078;12.108;2023-01-19T01:46:13;5.00;70.60
35700;DHT22;21818;51.078;12.108;2023-01-19T01:48:41;5.10;70.50
35700;DHT22;21818;51.078;12.108;2023-01-19T01:51:12;5.10;70.50
35700;DHT22;21818;51.078;12.108;2023-01-19T01:56:37;5.10;70.60
35700;DHT22;21818;51.078;12.108;2023-01-19T01:59:06;5.10;70.60
35700;DHT22;21818;51.078;12.108;2023-01-19T02:01:34;5.10;70.30
35700;DHT22;21818;51.078;12.108;2023-01-19T02:04:30;5.10;70.30
35700;DHT22;21818;51.078;12.108;2023-01-19T02:06:55;5.10;70.30
35700;DHT22;21818;51.078;12.108;2023-01-19T02:09:39;5.10;70.40
35700;DHT22;21818;51.078;12.108;2023-01-19T02:12:24;5.10;70.40
35700;DHT22;21818;51.078;12.108;2023-01-19T02:15:16;5.10;70.40
35700;DHT22;21818;51.078;12.108;2023-01-19T02:17:42;5.10;70.10
35700;DHT22;21818;51.078;12.108;2023-01-19T02:20:08;5.10;70.20
35700;DHT22;21818;51.078;12.108;2023-01-19T02:22:43;5.10;70.10
35700;DHT22;21818;51.078;12.108;2023-01-19T02:25:09;5.10;70.20
35700;DHT22;21818;51.078;12.108;2023-01-19T02:27:35;5.10;70.20
35700;DHT22;21818;51.078;12.108;2023-01-19T02:30:02;5.20;70.10
35700;DHT22;21818;51.078;12.108;2023-01-19T02:32:29;5.20;70.10
35700;DHT22;21818;51.078;12.108;2023-01-19T02:34:54;5.10;69.90
35700;DHT22;21818;51.078;12.108;2023-01-19T02:37:21;5.20;69.80
35700;DHT22;21818;51.078;12.108;2023-01-19T02:39:56;5.10;69.90
35700;DHT22;21818;51.078;12.108;2023-01-19T02:42:36;5.10;70.00
35700;DHT22;21818;51.078;12.108;2023-01-19T02:45:04;5.00;70.10
35700;DHT22;21818;51.078;12.108;2023-01-19T02:47:42;5.10;70.20
35700;DHT22;21818;51.078;12.108;2023-01-19T02:50:41;5.00;70.30
35700;DHT22;21818;51.078;12.108;2023-01-19T02:53:25;5.10;70.20
35700;DHT22;21818;51.078;12.108;2023-01-19T02:55:56;5.10;70.20
35700;DHT22;21818;51.078;12.108;2023-01-19T02:58:39;5.10;70.20
35700;DHT22;21818;51.078;12.108;2023-01-19T03:01:21;5.20;70.00
35700;DHT22;21818;51.078;12.108;2023-01-19T03:06:51;5.30;69.80
35700;DHT22;21818;51.078;12.108;2023-01-19T03:09:31;5.40;69.80
35700;DHT22;21818;51.078;12.108;2023-01-19T03:12:20;5.30;69.80
35700;DHT22;21818;51.078;12.108;2023-01-19T03:14:48;5.50;69.60
35700;DHT22;21818;51.078;12.108;2023-01-19T03:17:16;5.50;69.70
35700;DHT22;21818;51.078;12.108;2023-01-19T03:19:45;5.40;69.40
35700;DHT22;21818;51.078;12.108;2023-01-19T03:22:24;5.40;69.40
35700;DHT22;21818;51.078;12.108;2023-01-19T03:24:54;5.20;69.40
35700;DHT22;21818;51.078;12.108;2023-01-19T03:27:25;5.10;69.60
35700;DHT22;21818;51.078;12.108;2023-01-19T03:29:56;5.10;69.70
35700;DHT22;21818;51.078;12.108;2023-01-19T03:32:27;5.10;69.80
35700;DHT22;21818;51.078;12.108;2023-01-19T03:34:57;5.00;69.70
35700;DHT22;21818;51.078;12.108;2023-01-19T03:37:24;4.90;69.90
35700;DHT22;21818;51.078;12.108;2023-01-19T03:39:51;4.90;69.60
35700;DHT22;21818;51.078;12.108;2023-01-19T03:42:17;4.90;69.80
35700;DHT22;21818;51.078;12.108;2023-01-19T03:44:44;4.90;69.70
35700;DHT22;21818;51.078;12.108;2023-01-19T03:47:13;4.90;69.70
35700;DHT22;21818;51.078;12.108;2023-01-19T03:49:40;4.90;69.80
35700;DHT22;21818;51.078;12.108;2023-01-19T03:52:07;4.90;69.70
35700;DHT22;21818;51.078;12.108;2023-01-19T03:54:33;4.90;69.60
35700;DHT22;21818;51.078;12.108;2023-01-19T03:56:58;4.90;69.80
35700;DHT22;21818;51.078;12.108;2023-01-19T03:59:24;4.90;69.80
35700;DHT22;21818;51.078;12.108;2023-01-19T04:01:50;4.90;69.70
35700;DHT22;21818;51.078;12.108;2023-01-19T04:04:15;4.90;69.80
35700;DHT22;21818;51.078;12.108;2023-01-19T04:06:42;4.90;69.70
35700;DHT22;21818;51.078;12.108;2023-01-19T04:09:07;4.90;70.10
35700;DHT22;21818;51.078;12.108;2023-01-19T04:11:33;5.10;70.00
35700;DHT22;21818;51.078;12.108;2023-01-19T04:13:59;5.10;69.70
35700;DHT22;21818;51.078;12.108;2023-01-19T04:16:24;5.20;69.90
35700;DHT22;21818;51.078;12.108;2023-01-19T04:18:50;5.20;69.70
35700;DHT22;21818;51.078;12.108;2023-01-19T04:21:17;5.20;69.60
35700;DHT22;21818;51.078;12.108;2023-01-19T04:23:42;5.20;69.50
35700;DHT22;21818;51.078;12.108;2023-01-19T04:26:08;5.20;69.60
35700;DHT22;21818;51.078;12.108;2023-01-19T04:28:35;5.10;69.90
35700;DHT22;21818;51.078;12.108;2023-01-19T04:31:02;5.20;69.80
35700;DHT22;21818;51.078;12.108;2023-01-19T04:33:28;5.30;69.90
35700;DHT22;21818;51.078;12.108;2023-01-19T04:35:54;5.40;69.90
35700;DHT22;21818;51.078;12.108;2023-01-19T04:38:21;5.50;69.30
35700;DHT22;21818;51.078;12.108;2023-01-19T04:40:50;5.60;69.50
35700;DHT22;21818;51.078;12.108;2023-01-19T04:43:18;5.70;69.30
35700;DHT22;21818;51.078;12.108;2023-01-19T04:45:45;5.70;69.30
35700;DHT22;21818;51.078;12.108;2023-01-19T04:48:11;5.90;69.70
35700;DHT22;21818;51.078;12.108;2023-01-19T04:50:37;6.00;68.90
35700;DHT22;21818;51.078;12.108;2023-01-19T04:53:03;5.90;68.90
35700;DHT22;21818;51.078;12.108;2023-01-19T04:55:28;5.90;69.10
35700;DHT22;21818;51.078;12.108;2023-01-19T04:57:54;6.00;69.00
35700;DHT22;21818;51.078;12.108;2023-01-19T05:00:21;6.00;68.90
35700;DHT22;21818;51.078;12.108;2023-01-19T05:02:46;6.00;68.90
35700;DHT22;21818;51.078;12.108;2023-01-19T05:05:12;6.10;68.80
35700;DHT22;21818;51.078;12.108;2023-01-19T05:07:38;6.10;68.80
35700;DHT22;21818;51.078;12.108;2023-01-19T05:10:05;6.20;69.10
35700;DHT22;21818;51.078;12.108;2023-01-19T05:12:31;6.30;68.50
35700;DHT22;21818;51.078;12.108;2023-01-19T05:14:57;6.30;68.40
35700;DHT22;21818;51.078;12.108;2023-01-19T05:17:22;6.40;68.20
35700;DHT22;21818;51.078;12.108;2023-01-19T05:19:48;6.40;68.10
35700;DHT22;21818;51.078;12.108;2023-01-19T05:22:14;6.40;68.00
35700;DHT22;21818;51.078;12.108;2023-01-19T05:24:40;6.40;67.90
35700;DHT22;21818;51.078;12.108;2023-01-19T05:27:05;6.30;67.90
35700;DHT22;21818;51.078;12.108;2023-01-19T05:29:31;6.20;68.20
35700;DHT22;21818;51.078;12.108;2023-01-19T05:31:57;6.20;68.20
35700;DHT22;21818;51.078;12.108;2023-01-19T05:34:23;6.30;67.80
35700;DHT22;21818;51.078;12.108;2023-01-19T05:36:48;6.30;67.60
35700;DHT22;21818;51.078;12.108;2023-01-19T05:39:14;6.40;67.60
35700;DHT22;21818;51.078;12.108;2023-01-19T05:41:39;6.50;67.20
35700;DHT22;21818;51.078;12.108;2023-01-19T05:44:06;6.60;67.10
35700;DHT22;21818;51.078;12.108;2023-01-19T05:46:33;6.60;67.10
35700;DHT22;21818;51.078;12.108;2023-01-19T05:48:59;6.80;66.80
35700;DHT22;21818;51.078;12.108;2023-01-19T05:51:28;6.80;66.50
35700;DHT22;21818;51.078;12.108;2023-01-19T05:53:59;6.70;66.70
35700;DHT22;21818;51.078;12.108;2023-01-19T05:56:25;6.70;66.70
35700;DHT22;21818;51.078;12.108;2023-01-19T05:58:51;6.70;66.70
35700;DHT22;21818;51.078;12.108;2023-01-19T06:01:16;7.10;67.20
35700;DHT22;21818;51.078;12.108;2023-01-19T06:03:42;7.60;66.40
35700;DHT22;21818;51.078;12.108;2023-01-19T06:06:08;8.00;65.80
35700;DHT22;21818;51.078;12.108;2023-01-19T06:08:33;8.30;65.40
35700;DHT22;21818;51.078;12.108;2023-01-19T06:10:59;8.50;65.10
35700;DHT22;21818;51.078;12.108;2023-01-19T06:13:25;8.60;65.00
35700;DHT22;21818;51.078;12.108;2023-01-19T06:15:57;8.70;65.00
35700;DHT22;21818;51.078;12.108;2023-01-19T06:18:23;8.70;64.80
35700;DHT22;21818;51.078;12.108;2023-01-19T06:20:49;8.80;65.00
35700;DHT22;21818;51.078;12.108;2023-01-19T06:23:14;8.80;64.90
35700;DHT22;21818;51.078;12.108;2023-01-19T06:25:40;8.90;64.80
35700;DHT22;21818;51.078;12.108;2023-01-19T06:28:06;9.00;64.70
35700;DHT22;21818;51.078;12.108;2023-01-19T06:30:31;9.10;64.60
35700;DHT22;21818;51.078;12.108;2023-01-19T06:32:57;9.10;64.60
35700;DHT22;21818;51.078;12.108;2023-01-19T06:35:23;9.10;64.50
35700;DHT22;21818;51.078;12.108;2023-01-19T06:37:48;9.20;64.60
35700;DHT22;21818;51.078;12.108;2023-01-19T06:40:14;9.20;64.50
35700;DHT22;21818;51.078;12.108;2023-01-19T06:42:39;9.20;64.40
35700;DHT22;21818;51.078;12.108;2023-01-19T06:45:05;9.30;64.40
35700;DHT22;21818;51.078;12.108;2023-01-19T06:47:31;9.30;64.30
35700;DHT22;21818;51.078;12.108;2023-01-19T06:49:58;9.30;64.30
35700;DHT22;21818;51.078;12.108;2023-01-19T06:52:24;9.30;64.20
35700;DHT22;21818;51.078;12.108;2023-01-19T06:54:49;9.30;64.20
35700;DHT22;21818;51.078;12.108;2023-01-19T06:57:15;9.40;64.10
35700;DHT22;21818;51.078;12.108;2023-01-19T06:59:41;9.40;64.00
35700;DHT22;21818;51.078;12.108;2023-01-19T07:02:07;9.40;63.90
35700;DHT22;21818;51.078;12.108;2023-01-19T07:04:33;9.40;63.80
35700;DHT22;21818;51.078;12.108;2023-01-19T07:06:59;9.20;64.10
35700;DHT22;21818;51.078;12.108;2023-01-19T07:09:25;9.10;64.50
35700;DHT22;21818;51.078;12.108;2023-01-19T07:11:53;9.10;64.60
35700;DHT22;21818;51.078;12.108;2023-01-19T07:14:18;9.20;64.40
35700;DHT22;21818;51.078;12.108;2023-01-19T07:16:45;9.30;64.30
35700;DHT22;21818;51.078;12.108;2023-01-19T07:19:10;9.30;64.20
35700;DHT22;21818;51.078;12.108;2023-01-19T07:21:36;9.40;64.00
35700;DHT22;21818;51.078;12.108;2023-01-19T07:24:02;9.50;63.80
35700;DHT22;21818;51.078;12.108;2023-01-19T07:26:27;9.50;63.70
35700;DHT22;21818;51.078;12.108;2023-01-19T07:28:54;9.60;63.70
35700;DHT22;21818;51.078;12.108;2023-01-19T07:31:20;9.60;63.60
35700;DHT22;21818;51.078;12.108;2023-01-19T07:33:45;9.60;63.50
35700;DHT22;21818;51.078;12.108;2023-01-19T07:36:11;9.70;63.50
35700;DHT22;21818;51.078;12.108;2023-01-19T07:38:37;9.60;63.50
35700;DHT22;21818;51.078;12.108;2023-01-19T07:41:04;9.60;63.50
35700;DHT22;21818;51.078;12.108;2023-01-19T07:43:30;9.60;63.60
35700;DHT22;21818;51.078;12.108;2023-01-19T07:45:59;9.60;63.70
35700;DHT22;21818;51.078;12.108;2023-01-19T07:48:25;9.60;63.60
35700;DHT22;21818;51.078;12.108;2023-01-19T07:50:51;9.60;63.70
35700;DHT22;21818;51.078;12.108;2023-01-19T07:53:16;9.60;63.70
35700;DHT22;21818;51.078;12.108;2023-01-19T07:55:42;9.60;63.60
35700;DHT22;21818;51.078;12.108;2023-01-19T07:58:08;9.60;63.60
35700;DHT22;21818;51.078;12.108;2023-01-19T08:00:34;9.60;63.50
35700;DHT22;21818;51.078;12.108;2023-01-19T08:03:02;9.70;63.40
35700;DHT22;21818;51.078;12.108;2023-01-19T08:05:28;9.70;63.40
35700;DHT22;21818;51.078;12.108;2023-01-19T08:07:55;9.70;63.40
35700;DHT22;21818;51.078;12.108;2023-01-19T08:10:25;9.70;63.40
35700;DHT22;21818;51.078;12.108;2023-01-19T08:12:55;9.60;63.30
35700;DHT22;21818;51.078;12.108;2023-01-19T08:15:21;9.60;63.30
35700;DHT22;21818;51.078;12.108;2023-01-19T08:18:02;9.60;63.30
35700;DHT22;21818;51.078;12.108;2023-01-19T08:20:30;9.70;63.40
35700;DHT22;21818;51.078;12.108;2023-01-19T08:22:56;9.70;63.30
35700;DHT22;21818;51.078;12.108;2023-01-19T08:25:40;9.70;63.20
35700;DHT22;21818;51.078;12.108;2023-01-19T08:28:07;9.70;63.20
35700;DHT22;21818;51.078;12.108;2023-01-19T08:30:34;9.80;63.30
35700;DHT22;21818;51.078;12.108;2023-01-19T08:33:00;9.70;63.20
35700;DHT22;21818;51.078;12.108;2023-01-19T08:35:36;9.60;63.40
35700;DHT22;21818;51.078;12.108;2023-01-19T08:38:02;9.60;63.60
35700;DHT22;21818;51.078;12.108;2023-01-19T08:40:33;9.60;63.70
35700;DHT22;21818;51.078;12.108;2023-01-19T08:43:00;9.60;63.60
35700;DHT22;21818;51.078;12.108;2023-01-19T08:45:28;9.70;63.50
35700;DHT22;21818;51.078;12.108;2023-01-19T08:47:55;9.70;63.60
35700;DHT22;21818;51.078;12.108;2023-01-19T08:50:27;9.60;63.70
35700;DHT22;21818;51.078;12.108;2023-01-19T08:53:00;9.60;63.70
35700;DHT22;21818;51.078;12.108;2023-01-19T08:55:27;9.60;63.80
35700;DHT22;21818;51.078;12.108;2023-01-19T08:57:54;9.60;63.80
35700;DHT22;21818;51.078;12.108;2023-01-19T09:00:21;9.70;63.80
35700;DHT22;21818;51.078;12.108;2023-01-19T09:02:47;9.80;63.70
35700;DHT22;21818;51.078;12.108;2023-01-19T09:05:13;9.80;63.60
35700;DHT22;21818;51.078;12.108;2023-01-19T09:07:39;9.90;63.70
35700;DHT22;21818;51.078;12.108;2023-01-19T09:10:06;9.90;63.50
35700;DHT22;21818;51.078;12.108;2023-01-19T09:12:32;10.00;63.50
35700;DHT22;21818;51.078;12.108;2023-01-19T09:14:58;10.00;63.50
35700;DHT22;21818;51.078;12.108;2023-01-19T09:17:23;10.00;63.50
35700;DHT22;21818;51.078;12.108;2023-01-19T09:19:49;10.00;63.50
35700;DHT22;21818;51.078;12.108;2023-01-19T09:22:15;10.00;63.40
35700;DHT22;21818;51.078;12.108;2023-01-19T09:24:40;10.00;64.00
35700;DHT22;21818;51.078;12.108;2023-01-19T09:27:06;10.00;63.50
35700;DHT22;21818;51.078;12.108;2023-01-19T09:29:31;10.00;63.50
35700;DHT22;21818;51.078;12.108;2023-01-19T09:31:57;9.90;63.50
35700;DHT22;21818;51.078;12.108;2023-01-19T09:34:23;9.90;63.60
35700;DHT22;21818;51.078;12.108;2023-01-19T09:36:52;9.90;63.60
35700;DHT22;21818;51.078;12.108;2023-01-19T09:39:18;9.90;63.60
35700;DHT22;21818;51.078;12.108;2023-01-19T09:41:55;9.90;63.60
35700;DHT22;21818;51.078;12.108;2023-01-19T09:44:28;9.80;63.70
35700;DHT22;21818;51.078;12.108;2023-01-19T09:46:56;9.80;63.80
35700;DHT22;21818;51.078;12.108;2023-01-19T09:49:33;9.80;64.10
35700;DHT22;21818;51.078;12.108;2023-01-19T09:52:01;9.80;63.80
35700;DHT22;21818;51.078;12.108;2023-01-19T09:54:45;9.80;64.00
35700;DHT22;21818;51.078;12.108;2023-01-19T09:57:13;9.80;64.10
35700;DHT22;21818;51.078;12.108;2023-01-19T09:59:39;9.80;63.90
35700;DHT22;21818;51.078;12.108;2023-01-19T10:02:17;9.80;63.90
35700;DHT22;21818;51.078;12.108;2023-01-19T10:05:03;9.80;63.90
35700;DHT22;21818;51.078;12.108;2023-01-19T10:10:24;9.80;63.90
35700;DHT22;21818;51.078;12.108;2023-01-19T10:18:46;9.70;64.20
35700;DHT22;21818;51.078;12.108;2023-01-19T10:21:16;9.80;64.20
35700;DHT22;21818;51.078;12.108;2023-01-19T10:23:44;9.80;64.20
35700;DHT22;21818;51.078;12.108;2023-01-19T10:28:40;9.90;63.90
35700;DHT22;21818;51.078;12.108;2023-01-19T10:31:06;9.90;63.80
35700;DHT22;21818;51.078;12.108;2023-01-19T10:33:34;10.00;63.80
35700;DHT22;21818;51.078;12.108;2023-01-19T10:36:05;10.00;63.60
35700;DHT22;21818;51.078;12.108;2023-01-19T10:38:32;10.10;63.50
35700;DHT22;21818;51.078;12.108;2023-01-19T10:41:13;10.10;63.40
35700;DHT22;21818;51.078;12.108;2023-01-19T10:43:43;10.10;63.40
35700;DHT22;21818;51.078;12.108;2023-01-19T10:48:58;10.10;63.40
35700;DHT22;21818;51.078;12.108;2023-01-19T10:51:24;10.10;63.40
35700;DHT22;21818;51.078;12.108;2023-01-19T10:54:00;10.20;63.40
35700;DHT22;21818;51.078;12.108;2023-01-19T10:56:35;10.20;63.30
35700;DHT22;21818;51.078;12.108;2023-01-19T10:59:03;10.20;63.20
35700;DHT22;21818;51.078;12.108;2023-01-19T11:01:30;10.20;63.20
35700;DHT22;21818;51.078;12.108;2023-01-19T11:04:00;10.30;63.10
35700;DHT22;21818;51.078;12.108;2023-01-19T11:06:42;10.30;63.10
35700;DHT22;21818;51.078;12.108;2023-01-19T11:09:18;10.30;63.00
35700;DHT22;21818;51.078;12.108;2023-01-19T11:11:50;10.30;62.80
35700;DHT22;21818;51.078;12.108;2023-01-19T11:14:21;10.40;62.90
35700;DHT22;21818;51.078;12.108;2023-01-19T11:16:53;10.40;62.80
35700;DHT22;21818;51.078;12.108;2023-01-19T11:19:24;10.40;62.80
35700;DHT22;21818;51.078;12.108;2023-01-19T11:21:51;10.40;62.80
35700;DHT22;21818;51.078;12.108;2023-01-19T11:24:17;10.40;62.80
35700;DHT22;21818;51.078;12.108;2023-01-19T11:26:48;10.40;62.80
35700;DHT22;21818;51.078;12.108;2023-01-19T11:29:23;10.50;62.80
35700;DHT22;21818;51.078;12.108;2023-01-19T11:31:49;10.50;62.60
35700;DHT22;21818;51.078;12.108;2023-01-19T11:34:33;10.50;62.60
35700;DHT22;21818;51.078;12.108;2023-01-19T11:37:02;10.50;62.60
35700;DHT22;21818;51.078;12.108;2023-01-19T11:39:30;10.60;62.60
35700;DHT22;21818;51.078;12.108;2023-01-19T11:42:02;10.60;62.40
35700;DHT22;21818;51.078;12.108;2023-01-19T11:44:29;10.60;62.30
35700;DHT22;21818;51.078;12.108;2023-01-19T11:47:02;10.70;62.40
35700;DHT22;21818;51.078;12.108;2023-01-19T11:52:26;10.80;62.10
35700;DHT22;21818;51.078;12.108;2023-01-19T11:55:23;10.80;62.00
35700;DHT22;21818;51.078;12.108;2023-01-19T11:57:51;10.90;61.80
35700;DHT22;21818;51.078;12.108;2023-01-19T12:00:37;10.90;62.00
35700;DHT22;21818;51.078;12.108;2023-01-19T12:03:29;10.90;61.80
35700;DHT22;21818;51.078;12.108;2023-01-19T12:06:06;10.90;61.80
35700;DHT22;21818;51.078;12.108;2023-01-19T12:08:39;11.00;61.80
35700;DHT22;21818;51.078;12.108;2023-01-19T12:11:09;11.10;61.70
35700;DHT22;21818;51.078;12.108;2023-01-19T12:13:39;11.10;61.60
35700;DHT22;21818;51.078;12.108;2023-01-19T12:16:12;11.10;61.60
35700;DHT22;21818;51.078;12.108;2023-01-19T12:18:47;11.20;61.40
35700;DHT22;21818;51.078;12.108;2023-01-19T12:21:14;11.20;61.40
35700;DHT22;21818;51.078;12.108;2023-01-19T12:29:12;11.40;61.00
35700;DHT22;21818;51.078;12.108;2023-01-19T12:31:40;11.50;60.90
35700;DHT22;21818;51.078;12.108;2023-01-19T12:36:49;11.60;60.60
35700;DHT22;21818;51.078;12.108;2023-01-19T12:39:18;11.70;60.60
35700;DHT22;21818;51.078;12.108;2023-01-19T12:41:44;11.80;60.40
35700;DHT22;21818;51.078;12.108;2023-01-19T12:46:57;12.00;60.10
35700;DHT22;21818;51.078;12.108;2023-01-19T12:52:25;12.10;59.80
35700;DHT22;21818;51.078;12.108;2023-01-19T12:57:39;12.30;59.70
35700;DHT22;21818;51.078;12.108;2023-01-19T13:00:30;12.40;59.60
35700;DHT22;21818;51.078;12.108;2023-01-19T13:02:57;12.40;59.30
35700;DHT22;21818;51.078;12.108;2023-01-19T13:15:44;12.60;58.90
35700;DHT22;21818;51.078;12.108;2023-01-19T13:18:16;12.50;59.00
35700;DHT22;21818;51.078;12.108;2023-01-19T13:20:47;12.40;59.10
35700;DHT22;21818;51.078;12.108;2023-01-19T13:25:58;12.00;59.50
35700;DHT22;21818;51.078;12.108;2023-01-19T13:28:37;12.00;59.60
35700;DHT22;21818;51.078;12.108;2023-01-19T13:31:04;11.90;59.80
35700;DHT22;21818;51.078;12.108;2023-01-19T13:33:37;11.80;59.90
35700;DHT22;21818;51.078;12.108;2023-01-19T13:36:03;11.70;59.80
35700;DHT22;21818;51.078;12.108;2023-01-19T13:38:32;11.70;59.90
35700;DHT22;21818;51.078;12.108;2023-01-19T13:40:59;11.80;59.70
35700;DHT22;21818;51.078;12.108;2023-01-19T13:43:35;11.80;60.40
35700;DHT22;21818;51.078;12.108;2023-01-19T13:46:02;11.70;59.90
35700;DHT22;21818;51.078;12.108;2023-01-19T13:48:30;11.60;60.00
35700;DHT22;21818;51.078;12.108;2023-01-19T13:51:01;11.50;60.00
35700;DHT22;21818;51.078;12.108;2023-01-19T13:53:28;11.50;60.20
35700;DHT22;21818;51.078;12.108;2023-01-19T13:58:33;11.40;60.20
35700;DHT22;21818;51.078;12.108;2023-01-19T14:00:58;11.30;60.40
35700;DHT22;21818;51.078;12.108;2023-01-19T14:03:24;11.20;60.40
35700;DHT22;21818;51.078;12.108;2023-01-19T14:05:52;11.20;60.50
35700;DHT22;21818;51.078;12.108;2023-01-19T14:08:19;11.20;60.70
35700;DHT22;21818;51.078;12.108;2023-01-19T14:13:21;11.10;60.70
35700;DHT22;21818;51.078;12.108;2023-01-19T14:15:51;11.00;60.80
35700;DHT22;21818;51.078;12.108;2023-01-19T14:20:55;10.90;61.00
35700;DHT22;21818;51.078;12.108;2023-01-19T14:29:21;10.90;61.00
35700;DHT22;21818;51.078;12.108;2023-01-19T14:31:51;10.90;61.00
35700;DHT22;21818;51.078;12.108;2023-01-19T14:34:39;10.90;60.90
35700;DHT22;21818;51.078;12.108;2023-01-19T14:37:24;10.80;61.10
35700;DHT22;21818;51.078;12.108;2023-01-19T14:40:22;10.80;61.10
35700;DHT22;21818;51.078;12.108;2023-01-19T14:42:50;10.80;61.20
35700;DHT22;21818;51.078;12.108;2023-01-19T14:45:19;10.80;61.30
35700;DHT22;21818;51.078;12.108;2023-01-19T14:47:57;10.80;61.30
35700;DHT22;21818;51.078;12.108;2023-01-19T14:50:32;10.70;61.20
35700;DHT22;21818;51.078;12.108;2023-01-19T14:53:13;10.70;61.40
35700;DHT22;21818;51.078;12.108;2023-01-19T14:55:51;10.60;61.50
35700;DHT22;21818;51.078;12.108;2023-01-19T14:58:20;10.60;61.50
35700;DHT22;21818;51.078;12.108;2023-01-19T15:00:46;10.60;61.50
35700;DHT22;21818;51.078;12.108;2023-01-19T15:03:12;10.60;61.50
35700;DHT22;21818;51.078;12.108;2023-01-19T15:05:41;10.60;61.50
35700;DHT22;21818;51.078;12.108;2023-01-19T15:08:12;10.60;61.50
35700;DHT22;21818;51.078;12.108;2023-01-19T15:10:39;10.60;61.60
35700;DHT22;21818;51.078;12.108;2023-01-19T15:13:05;10.60;61.60
35700;DHT22;21818;51.078;12.108;2023-01-19T15:15:32;10.60;61.60
35700;DHT22;21818;51.078;12.108;2023-01-19T15:18:00;10.60;61.60
35700;DHT22;21818;51.078;12.108;2023-01-19T15:20:26;10.60;61.70
35700;DHT22;21818;51.078;12.108;2023-01-19T15:22:52;10.60;61.70
35700;DHT22;21818;51.078;12.108;2023-01-19T15:25:20;10.60;61.70
35700;DHT22;21818;51.078;12.108;2023-01-19T15:27:47;10.60;61.80
35700;DHT22;21818;51.078;12.108;2023-01-19T15:30:23;10.60;61.80
35700;DHT22;21818;51.078;12.108;2023-01-19T15:32:49;10.50;61.80
35700;DHT22;21818;51.078;12.108;2023-01-19T15:35:17;10.50;61.90
35700;DHT22;21818;51.078;12.108;2023-01-19T15:37:44;10.50;61.90
35700;DHT22;21818;51.078;12.108;2023-01-19T15:40:10;10.50;62.00
35700;DHT22;21818;51.078;12.108;2023-01-19T15:42:36;10.50;62.00
35700;DHT22;21818;51.078;12.108;2023-01-19T15:45:01;10.50;62.10
35700;DHT22;21818;51.078;12.108;2023-01-19T15:47:27;10.50;62.30
35700;DHT22;21818;51.078;12.108;2023-01-19T15:49:53;10.40;62.40
35700;DHT22;21818;51.078;12.108;2023-01-19T15:52:18;10.50;62.30
35700;DHT22;21818;51.078;12.108;2023-01-19T15:54:44;10.40;62.30
35700;DHT22;21818;51.078;12.108;2023-01-19T15:57:09;10.40;62.30
35700;DHT22;21818;51.078;12.108;2023-01-19T15:59:35;10.50;62.30
35700;DHT22;21818;51.078;12.108;2023-01-19T16:02:01;10.50;62.40
35700;DHT22;21818;51.078;12.108;2023-01-19T16:04:26;10.50;62.30
35700;DHT22;21818;51.078;12.108;2023-01-19T16:06:52;10.50;62.20
35700;DHT22;21818;51.078;12.108;2023-01-19T16:09:17;10.50;62.30
35700;DHT22;21818;51.078;12.108;2023-01-19T16:11:44;10.50;62.40
35700;DHT22;21818;51.078;12.108;2023-01-19T16:14:10;10.50;62.40
35700;DHT22;21818;51.078;12.108;2023-01-19T16:16:36;10.50;62.40
35700;DHT22;21818;51.078;12.108;2023-01-19T16:19:02;10.40;62.30
35700;DHT22;21818;51.078;12.108;2023-01-19T16:21:27;10.40;62.40
35700;DHT22;21818;51.078;12.108;2023-01-19T16:23:53;10.40;62.60
35700;DHT22;21818;51.078;12.108;2023-01-19T16:26:23;10.40;62.50
35700;DHT22;21818;51.078;12.108;2023-01-19T16:28:49;10.40;62.50
35700;DHT22;21818;51.078;12.108;2023-01-19T16:31:14;10.40;62.60
35700;DHT22;21818;51.078;12.108;2023-01-19T16:33:41;10.30;62.70
35700;DHT22;21818;51.078;12.108;2023-01-19T16:36:24;10.30;62.80
35700;DHT22;21818;51.078;12.108;2023-01-19T16:38:50;10.30;63.00
35700;DHT22;21818;51.078;12.108;2023-01-19T16:41:16;10.30;63.00